createdAt,value
2019-03-11T14:04:13.431Z,5.10
2019-03-11T14:06:44.789Z,4.50
2019-03-11T14:09:16.330Z,5.40
2019-03-11T14:11:48.577Z,5.33
2019-03-11T14:14:20.102Z,3.05
2019-03-11T14:16:51.853Z,4.58
2019-03-11T14:19:25.156Z,3.37
2019-03-11T14:21:56.964Z,9.63
2019-03-11T14:24:28.627Z,4.85
2019-03-11T14:27:00.106Z,5.03
2019-03-11T14:29:31.650Z,3.55
2019-03-11T14:32:03.576Z,5.55
2019-03-11T14:34:35.304Z,6.45
2019-03-11T14:37:06.765Z,5.45
2019-03-11T14:39:39.542Z,5.15
2019-03-11T14:42:12.323Z,5.75
2019-03-11T14:44:43.948Z,11.43
2019-03-11T14:47:15.714Z,7.37
2019-03-11T15:02:19.047Z,5.25
2019-03-11T15:04:51.300Z,7.28
2019-03-11T15:07:23.693Z,7.97
2019-03-11T15:09:55.634Z,8.95
2019-03-11T15:12:27.038Z,6.62
2019-03-11T15:14:58.744Z,4.60
2019-03-11T15:17:30.317Z,6.53
2019-03-11T15:20:02.247Z,10.88
2019-03-11T15:22:35.044Z,6.45
2019-03-11T15:25:08.022Z,10.48
2019-03-11T15:27:39.818Z,6.60
2019-03-11T15:30:15.296Z,6.78
2019-03-11T15:32:48.034Z,8.85
2019-03-11T15:35:19.595Z,7.33
2019-03-11T15:37:51.297Z,9.78
2019-03-11T15:40:23.135Z,8.40
2019-03-11T15:42:54.743Z,4.55
2019-03-11T15:45:26.271Z,9.13
2019-03-11T16:00:31.590Z,16.35
2019-03-11T16:03:03.420Z,10.78
2019-03-11T16:05:35.359Z,4.80
2019-03-11T16:08:07.403Z,9.68
2019-03-11T16:10:38.919Z,5.75
2019-03-11T16:13:10.562Z,11.12
2019-03-11T16:15:41.958Z,8.23
2019-03-11T16:18:13.509Z,12.28
2019-03-11T16:20:45.546Z,9.73
2019-03-11T16:23:17.352Z,8.23
2019-03-11T16:25:48.993Z,5.87
2019-03-11T16:28:20.888Z,7.87
2019-03-11T16:30:52.372Z,7.62
2019-03-11T16:33:24.227Z,40.95
2019-03-11T16:35:55.869Z,39.40
2019-03-11T16:38:27.250Z,21.07
2019-03-11T16:40:59.091Z,11.40
2019-03-11T16:43:30.561Z,9.30
2019-03-11T16:46:04.490Z,8.28
2019-03-11T16:48:35.722Z,6.80
2019-03-11T16:51:07.391Z,11.75
2019-03-11T16:53:39.046Z,11.85
2019-03-11T16:56:10.925Z,6.12
2019-03-11T16:58:42.779Z,9.50
2019-03-11T17:01:14.356Z,8.00
2019-03-11T17:03:45.971Z,6.15
2019-03-11T17:06:18.588Z,6.62
2019-03-11T17:08:50.560Z,6.00
2019-03-11T17:11:21.887Z,6.85
2019-03-11T17:13:53.514Z,8.03
2019-03-11T17:16:25.403Z,8.73
2019-03-11T17:18:57.214Z,9.25
2019-03-11T17:21:28.855Z,8.78
2019-03-11T17:24:00.309Z,9.68
2019-03-11T17:26:32.177Z,10.83
2019-03-11T17:29:03.829Z,9.20
2019-03-11T17:31:35.979Z,10.00
2019-03-11T17:34:07.553Z,11.10
2019-03-11T17:36:39.234Z,11.00
2019-03-11T17:39:11.555Z,11.70
2019-03-11T17:41:43.220Z,12.37
2019-03-11T17:44:15.348Z,15.50
2019-03-11T17:46:47.015Z,12.30
2019-03-11T17:49:18.660Z,10.63
2019-03-11T17:51:50.184Z,13.83
2019-03-11T17:54:22.681Z,13.68
2019-03-11T17:56:54.452Z,17.77
2019-03-11T17:59:25.807Z,15.85
2019-03-11T18:01:57.756Z,14.50
2019-03-11T18:04:29.884Z,14.43
2019-03-11T18:07:01.492Z,15.53
2019-03-11T18:09:33.601Z,20.77
2019-03-11T18:12:05.608Z,17.77
2019-03-11T18:14:37.839Z,21.33
2019-03-11T18:17:09.456Z,20.90
2019-03-11T18:19:41.162Z,26.85
2019-03-11T18:22:12.717Z,28.62
2019-03-11T18:24:44.830Z,20.55
2019-03-11T18:27:16.678Z,20.05
2019-03-11T18:29:48.629Z,23.22
2019-03-11T18:32:20.518Z,22.93
2019-03-11T18:34:52.259Z,22.17
2019-03-11T18:37:23.800Z,18.02
2019-03-11T18:39:55.450Z,20.90
2019-03-11T18:42:28.398Z,22.60
2019-03-11T18:45:00.393Z,21.70
2019-03-11T18:47:32.253Z,22.07
2019-03-11T18:50:04.335Z,18.12
2019-03-11T18:52:35.969Z,20.02
2019-03-11T18:55:09.524Z,31.17
2019-03-11T18:57:41.893Z,20.67
2019-03-11T19:00:14.956Z,20.12
2019-03-11T19:02:46.983Z,17.57
2019-03-11T19:05:19.567Z,17.20
2019-03-11T19:07:54.933Z,17.40
2019-03-11T19:10:26.135Z,14.25
2019-03-11T19:12:57.976Z,15.75
2019-03-11T19:15:29.732Z,18.57
2019-03-11T19:18:02.001Z,18.85
2019-03-11T19:20:33.675Z,15.55
2019-03-11T19:23:05.584Z,18.40
2019-03-11T19:25:37.730Z,19.17
2019-03-11T19:28:09.576Z,15.98
2019-03-11T19:30:41.612Z,14.73
2019-03-11T19:33:13.033Z,16.02
2019-03-11T19:35:44.615Z,13.80
2019-03-11T19:38:16.398Z,18.80
2019-03-11T19:40:48.062Z,15.58
2019-03-11T19:43:19.784Z,19.25
2019-03-11T19:45:51.341Z,17.48
2019-03-11T19:48:25.161Z,16.90
2019-03-11T19:50:56.716Z,15.75
2019-03-11T19:53:28.783Z,16.35
2019-03-11T19:56:00.390Z,15.35
2019-03-11T19:58:32.203Z,20.65
2019-03-11T20:01:05.706Z,22.65
2019-03-11T20:03:37.392Z,13.13
2019-03-11T20:06:09.180Z,14.20
2019-03-11T20:08:41.365Z,20.65
2019-03-11T20:11:13.441Z,16.62
2019-03-11T20:13:45.118Z,17.52
2019-03-11T20:16:17.999Z,16.60
2019-03-11T20:18:50.002Z,14.60
2019-03-11T20:21:21.844Z,16.35
2019-03-11T20:23:53.311Z,20.75
2019-03-11T20:26:25.116Z,13.88
2019-03-11T20:28:56.665Z,16.20
2019-03-11T20:31:28.365Z,13.62
2019-03-11T20:34:00.160Z,14.90
2019-03-11T20:36:31.989Z,17.00
2019-03-11T20:39:04.688Z,18.73
2019-03-11T20:41:38.141Z,17.40
2019-03-11T20:44:09.886Z,20.52
2019-03-11T20:46:42.000Z,16.85
2019-03-11T20:49:13.639Z,15.65
2019-03-11T20:51:45.119Z,14.58
2019-03-11T20:54:16.801Z,15.78
2019-03-11T20:56:48.367Z,18.70
2019-03-11T20:59:19.995Z,18.60
2019-03-11T21:01:51.650Z,20.50
2019-03-11T21:04:23.553Z,17.62
2019-03-11T21:06:55.268Z,17.00
2019-03-11T21:09:26.736Z,18.10
2019-03-11T21:29:32.919Z,15.13
